Terminal Aerodrome Forecast
Issued by NWS

Home | Current Version | Previous Version | Text Only | Print | Product List | Glossary On
Versions: 1 2 3 4 5 6 7 8 9 10 11 12 13 14 15 16 17 18 19 20 21 22 23 24 25 26 27 28 29 30 31 32 33 34 35 36 37 38 39 40 41 42 43 44 45 46 47 48 49 50
000
FTUS42 KRAH 302324 CCA
TAFINT
TAF COR
KINT 302324Z 0100/0124 18010KT P6SM BKN060
      TEMPO 0100/0101 VRB10G20KT 3SM SHRA BKN035
     FM010800 18012G18KT P6SM BKN009
     FM011200 18012G23KT P6SM VCSH BKN015
     FM011500 19015G25KT P6SM VCSH BKN025
     FM011900 19017G25KT P6SM BKN035 PROB30 0119/0123 24025G40KT 2SM
      TSRA OVC025CB=

USA.gov is the U.S. government's official web portal to all federal, state and local government web resources and services.